sensor_id;sensor_type;location;lat;lon;timestamp;P1;durP1;ratioP1;P2;durP2;ratioP2
6101;SDS011;3081;50.584;7.032;2024-01-06T00:00:08;1.43;;;0.63;;
6101;SDS011;3081;50.584;7.032;2024-01-06T00:02:36;1.30;;;0.40;;
6101;SDS011;3081;50.584;7.032;2024-01-06T00:05:03;1.40;;;0.50;;
6101;SDS011;3081;50.584;7.032;2024-01-06T00:07:30;1.67;;;0.57;;
6101;SDS011;3081;50.584;7.032;2024-01-06T00:09:57;1.10;;;0.40;;
6101;SDS011;3081;50.584;7.032;2024-01-06T00:12:25;1.20;;;0.50;;
6101;SDS011;3081;50.584;7.032;2024-01-06T00:14:52;1.30;;;0.60;;
6101;SDS011;3081;50.584;7.032;2024-01-06T00:17:19;1.03;;;0.40;;
6101;SDS011;3081;50.584;7.032;2024-01-06T00:19:46;1.20;;;0.43;;
6101;SDS011;3081;50.584;7.032;2024-01-06T00:22:16;1.30;;;0.40;;
6101;SDS011;3081;50.584;7.032;2024-01-06T00:24:43;1.00;;;0.40;;
6101;SDS011;3081;50.584;7.032;2024-01-06T00:27:10;1.00;;;0.40;;
6101;SDS011;3081;50.584;7.032;2024-01-06T00:29:38;1.00;;;0.40;;
6101;SDS011;3081;50.584;7.032;2024-01-06T00:32:05;1.10;;;0.50;;
6101;SDS011;3081;50.584;7.032;2024-01-06T00:34:32;1.00;;;0.40;;
6101;SDS011;3081;50.584;7.032;2024-01-06T00:36:59;1.10;;;0.50;;
6101;SDS011;3081;50.584;7.032;2024-01-06T00:39:26;1.00;;;0.40;;
6101;SDS011;3081;50.584;7.032;2024-01-06T00:41:53;1.00;;;0.40;;
6101;SDS011;3081;50.584;7.032;2024-01-06T00:44:20;1.00;;;0.40;;
6101;SDS011;3081;50.584;7.032;2024-01-06T00:46:48;1.73;;;0.50;;
6101;SDS011;3081;50.584;7.032;2024-01-06T00:49:15;1.00;;;0.30;;
6101;SDS011;3081;50.584;7.032;2024-01-06T00:51:42;1.00;;;0.40;;
6101;SDS011;3081;50.584;7.032;2024-01-06T00:54:09;1.00;;;0.40;;
6101;SDS011;3081;50.584;7.032;2024-01-06T00:56:36;1.27;;;0.47;;
6101;SDS011;3081;50.584;7.032;2024-01-06T00:59:03;1.00;;;0.40;;
6101;SDS011;3081;50.584;7.032;2024-01-06T01:01:31;1.00;;;0.30;;
6101;SDS011;3081;50.584;7.032;2024-01-06T01:03:59;1.10;;;0.40;;
6101;SDS011;3081;50.584;7.032;2024-01-06T01:06:26;1.00;;;0.50;;
6101;SDS011;3081;50.584;7.032;2024-01-06T01:08:53;1.00;;;0.40;;
6101;SDS011;3081;50.584;7.032;2024-01-06T01:11:20;1.00;;;0.40;;
6101;SDS011;3081;50.584;7.032;2024-01-06T01:13:47;1.00;;;0.40;;
6101;SDS011;3081;50.584;7.032;2024-01-06T01:16:14;1.00;;;0.50;;
6101;SDS011;3081;50.584;7.032;2024-01-06T01:18:41;1.00;;;0.40;;
6101;SDS011;3081;50.584;7.032;2024-01-06T01:21:10;1.00;;;0.40;;
6101;SDS011;3081;50.584;7.032;2024-01-06T01:23:37;1.00;;;0.40;;
6101;SDS011;3081;50.584;7.032;2024-01-06T01:26:03;1.00;;;0.40;;
6101;SDS011;3081;50.584;7.032;2024-01-06T01:28:30;1.00;;;0.40;;
6101;SDS011;3081;50.584;7.032;2024-01-06T01:30:57;1.10;;;0.50;;
6101;SDS011;3081;50.584;7.032;2024-01-06T01:33:24;1.50;;;0.50;;
6101;SDS011;3081;50.584;7.032;2024-01-06T01:35:51;1.00;;;0.40;;
6101;SDS011;3081;50.584;7.032;2024-01-06T01:38:19;1.00;;;0.40;;
6101;SDS011;3081;50.584;7.032;2024-01-06T01:40:46;1.10;;;0.40;;
6101;SDS011;3081;50.584;7.032;2024-01-06T01:43:17;1.10;;;0.40;;
6101;SDS011;3081;50.584;7.032;2024-01-06T01:45:44;1.23;;;0.60;;
6101;SDS011;3081;50.584;7.032;2024-01-06T01:48:14;1.00;;;0.40;;
6101;SDS011;3081;50.584;7.032;2024-01-06T01:50:41;1.10;;;0.50;;
6101;SDS011;3081;50.584;7.032;2024-01-06T01:53:08;1.20;;;0.50;;
6101;SDS011;3081;50.584;7.032;2024-01-06T01:55:36;1.00;;;0.40;;
6101;SDS011;3081;50.584;7.032;2024-01-06T01:58:03;1.50;;;0.70;;
6101;SDS011;3081;50.584;7.032;2024-01-06T02:00:31;1.00;;;0.50;;
6101;SDS011;3081;50.584;7.032;2024-01-06T02:02:58;1.10;;;0.50;;
6101;SDS011;3081;50.584;7.032;2024-01-06T02:05:25;1.10;;;0.50;;
6101;SDS011;3081;50.584;7.032;2024-01-06T02:07:52;1.00;;;0.40;;
6101;SDS011;3081;50.584;7.032;2024-01-06T02:10:19;4.00;;;0.60;;
6101;SDS011;3081;50.584;7.032;2024-01-06T02:12:48;1.40;;;0.40;;
6101;SDS011;3081;50.584;7.032;2024-01-06T02:15:16;1.10;;;0.50;;
6101;SDS011;3081;50.584;7.032;2024-01-06T02:17:43;1.00;;;0.37;;
6101;SDS011;3081;50.584;7.032;2024-01-06T02:20:11;1.13;;;0.57;;
6101;SDS011;3081;50.584;7.032;2024-01-06T02:22:40;1.00;;;0.40;;
6101;SDS011;3081;50.584;7.032;2024-01-06T02:25:07;1.20;;;0.60;;
6101;SDS011;3081;50.584;7.032;2024-01-06T02:27:37;1.00;;;0.50;;
6101;SDS011;3081;50.584;7.032;2024-01-06T02:30:05;1.00;;;0.40;;
6101;SDS011;3081;50.584;7.032;2024-01-06T02:32:33;1.50;;;0.40;;
6101;SDS011;3081;50.584;7.032;2024-01-06T02:34:59;1.00;;;0.40;;
6101;SDS011;3081;50.584;7.032;2024-01-06T02:37:26;0.90;;;0.40;;
6101;SDS011;3081;50.584;7.032;2024-01-06T02:39:55;1.00;;;0.40;;
6101;SDS011;3081;50.584;7.032;2024-01-06T02:42:21;0.97;;;0.40;;
6101;SDS011;3081;50.584;7.032;2024-01-06T02:44:50;0.90;;;0.30;;
6101;SDS011;3081;50.584;7.032;2024-01-06T02:47:17;0.90;;;0.30;;
6101;SDS011;3081;50.584;7.032;2024-01-06T02:49:44;0.90;;;0.30;;
6101;SDS011;3081;50.584;7.032;2024-01-06T02:52:11;1.00;;;0.40;;
6101;SDS011;3081;50.584;7.032;2024-01-06T02:54:38;1.07;;;0.50;;
6101;SDS011;3081;50.584;7.032;2024-01-06T02:57:06;0.90;;;0.30;;
6101;SDS011;3081;50.584;7.032;2024-01-06T02:59:33;0.90;;;0.40;;
6101;SDS011;3081;50.584;7.032;2024-01-06T03:02:01;1.00;;;0.50;;
6101;SDS011;3081;50.584;7.032;2024-01-06T03:04:28;0.90;;;0.40;;
6101;SDS011;3081;50.584;7.032;2024-01-06T03:06:55;0.90;;;0.40;;
6101;SDS011;3081;50.584;7.032;2024-01-06T03:09:22;1.00;;;0.40;;
6101;SDS011;3081;50.584;7.032;2024-01-06T03:11:49;0.90;;;0.40;;
6101;SDS011;3081;50.584;7.032;2024-01-06T03:14:17;0.90;;;0.30;;
6101;SDS011;3081;50.584;7.032;2024-01-06T03:16:44;4.80;;;0.60;;
6101;SDS011;3081;50.584;7.032;2024-01-06T03:19:11;0.90;;;0.40;;
6101;SDS011;3081;50.584;7.032;2024-01-06T03:21:38;0.90;;;0.30;;
6101;SDS011;3081;50.584;7.032;2024-01-06T03:24:06;1.00;;;0.40;;
6101;SDS011;3081;50.584;7.032;2024-01-06T03:26:34;0.90;;;0.30;;
6101;SDS011;3081;50.584;7.032;2024-01-06T03:29:01;0.90;;;0.30;;
6101;SDS011;3081;50.584;7.032;2024-01-06T03:31:30;0.90;;;0.37;;
6101;SDS011;3081;50.584;7.032;2024-01-06T03:33:57;0.90;;;0.40;;
6101;SDS011;3081;50.584;7.032;2024-01-06T03:36:23;0.90;;;0.30;;
6101;SDS011;3081;50.584;7.032;2024-01-06T03:38:50;0.90;;;0.30;;
6101;SDS011;3081;50.584;7.032;2024-01-06T03:41:17;0.90;;;0.30;;
6101;SDS011;3081;50.584;7.032;2024-01-06T03:43:44;0.90;;;0.43;;
6101;SDS011;3081;50.584;7.032;2024-01-06T03:46:11;0.90;;;0.30;;
6101;SDS011;3081;50.584;7.032;2024-01-06T03:48:39;0.90;;;0.30;;
6101;SDS011;3081;50.584;7.032;2024-01-06T03:51:06;0.90;;;0.30;;
6101;SDS011;3081;50.584;7.032;2024-01-06T03:53:33;0.90;;;0.30;;
6101;SDS011;3081;50.584;7.032;2024-01-06T03:56:00;0.90;;;0.30;;
6101;SDS011;3081;50.584;7.032;2024-01-06T03:58:28;0.90;;;0.30;;
6101;SDS011;3081;50.584;7.032;2024-01-06T04:00:55;0.90;;;0.30;;
6101;SDS011;3081;50.584;7.032;2024-01-06T04:03:22;1.10;;;0.43;;
6101;SDS011;3081;50.584;7.032;2024-01-06T04:05:50;0.90;;;0.37;;
6101;SDS011;3081;50.584;7.032;2024-01-06T04:08:17;0.90;;;0.30;;
6101;SDS011;3081;50.584;7.032;2024-01-06T04:10:44;0.90;;;0.30;;
6101;SDS011;3081;50.584;7.032;2024-01-06T04:13:11;0.90;;;0.33;;
6101;SDS011;3081;50.584;7.032;2024-01-06T04:15:38;1.07;;;0.50;;
6101;SDS011;3081;50.584;7.032;2024-01-06T04:18:05;0.90;;;0.40;;
6101;SDS011;3081;50.584;7.032;2024-01-06T04:20:32;1.00;;;0.40;;
6101;SDS011;3081;50.584;7.032;2024-01-06T04:23:01;0.90;;;0.30;;
6101;SDS011;3081;50.584;7.032;2024-01-06T04:25:27;1.00;;;0.40;;
6101;SDS011;3081;50.584;7.032;2024-01-06T04:27:54;0.90;;;0.30;;
6101;SDS011;3081;50.584;7.032;2024-01-06T04:30:21;0.90;;;0.30;;
6101;SDS011;3081;50.584;7.032;2024-01-06T04:32:50;0.90;;;0.30;;
6101;SDS011;3081;50.584;7.032;2024-01-06T04:35:17;0.90;;;0.30;;
6101;SDS011;3081;50.584;7.032;2024-01-06T04:37:44;0.90;;;0.30;;
6101;SDS011;3081;50.584;7.032;2024-01-06T04:40:12;2.80;;;0.83;;
6101;SDS011;3081;50.584;7.032;2024-01-06T04:42:39;0.90;;;0.30;;
6101;SDS011;3081;50.584;7.032;2024-01-06T04:45:07;0.90;;;0.30;;
6101;SDS011;3081;50.584;7.032;2024-01-06T04:47:34;0.90;;;0.30;;
6101;SDS011;3081;50.584;7.032;2024-01-06T04:50:01;0.90;;;0.30;;
6101;SDS011;3081;50.584;7.032;2024-01-06T04:52:28;0.90;;;0.30;;
6101;SDS011;3081;50.584;7.032;2024-01-06T04:57:24;0.90;;;0.30;;
6101;SDS011;3081;50.584;7.032;2024-01-06T04:59:51;0.90;;;0.37;;
6101;SDS011;3081;50.584;7.032;2024-01-06T05:02:18;0.90;;;0.30;;
6101;SDS011;3081;50.584;7.032;2024-01-06T05:04:45;0.90;;;0.30;;
6101;SDS011;3081;50.584;7.032;2024-01-06T05:07:12;0.90;;;0.30;;
6101;SDS011;3081;50.584;7.032;2024-01-06T05:09:45;0.90;;;0.30;;
6101;SDS011;3081;50.584;7.032;2024-01-06T05:12:14;0.90;;;0.40;;
6101;SDS011;3081;50.584;7.032;2024-01-06T05:14:43;0.90;;;0.30;;
6101;SDS011;3081;50.584;7.032;2024-01-06T05:17:09;0.90;;;0.30;;
6101;SDS011;3081;50.584;7.032;2024-01-06T05:19:36;0.90;;;0.30;;
6101;SDS011;3081;50.584;7.032;2024-01-06T05:22:03;0.90;;;0.30;;
6101;SDS011;3081;50.584;7.032;2024-01-06T05:24:30;1.00;;;0.50;;
6101;SDS011;3081;50.584;7.032;2024-01-06T05:26:57;0.87;;;0.30;;
6101;SDS011;3081;50.584;7.032;2024-01-06T05:29:24;0.80;;;0.30;;
6101;SDS011;3081;50.584;7.032;2024-01-06T05:31:53;0.90;;;0.40;;
6101;SDS011;3081;50.584;7.032;2024-01-06T05:34:20;0.80;;;0.30;;
6101;SDS011;3081;50.584;7.032;2024-01-06T05:36:47;0.80;;;0.30;;
6101;SDS011;3081;50.584;7.032;2024-01-06T05:39:13;0.80;;;0.30;;
6101;SDS011;3081;50.584;7.032;2024-01-06T05:41:40;0.87;;;0.30;;
6101;SDS011;3081;50.584;7.032;2024-01-06T05:44:08;7.87;;;2.70;;
6101;SDS011;3081;50.584;7.032;2024-01-06T05:46:35;0.80;;;0.30;;
6101;SDS011;3081;50.584;7.032;2024-01-06T05:49:03;0.80;;;0.30;;
6101;SDS011;3081;50.584;7.032;2024-01-06T05:51:30;0.80;;;0.30;;
6101;SDS011;3081;50.584;7.032;2024-01-06T05:53:57;0.80;;;0.30;;
6101;SDS011;3081;50.584;7.032;2024-01-06T05:56:24;0.90;;;0.37;;
6101;SDS011;3081;50.584;7.032;2024-01-06T05:58:52;1.20;;;0.40;;
6101;SDS011;3081;50.584;7.032;2024-01-06T06:01:19;0.80;;;0.30;;
6101;SDS011;3081;50.584;7.032;2024-01-06T06:03:46;0.90;;;0.40;;
6101;SDS011;3081;50.584;7.032;2024-01-06T06:06:16;0.80;;;0.40;;
6101;SDS011;3081;50.584;7.032;2024-01-06T06:08:43;0.80;;;0.30;;
6101;SDS011;3081;50.584;7.032;2024-01-06T06:11:10;1.27;;;0.70;;
6101;SDS011;3081;50.584;7.032;2024-01-06T06:13:38;0.80;;;0.30;;
6101;SDS011;3081;50.584;7.032;2024-01-06T06:16:06;0.80;;;0.30;;
6101;SDS011;3081;50.584;7.032;2024-01-06T06:18:33;0.83;;;0.40;;
6101;SDS011;3081;50.584;7.032;2024-01-06T06:21:00;3.60;;;0.87;;
6101;SDS011;3081;50.584;7.032;2024-01-06T06:23:29;8.10;;;2.37;;
6101;SDS011;3081;50.584;7.032;2024-01-06T06:25:56;2.50;;;1.23;;
6101;SDS011;3081;50.584;7.032;2024-01-06T06:28:24;0.80;;;0.50;;
6101;SDS011;3081;50.584;7.032;2024-01-06T06:30:51;1.77;;;0.90;;
6101;SDS011;3081;50.584;7.032;2024-01-06T06:33:18;5.70;;;2.00;;
6101;SDS011;3081;50.584;7.032;2024-01-06T06:35:45;1.90;;;1.63;;
6101;SDS011;3081;50.584;7.032;2024-01-06T06:38:12;2.87;;;1.77;;
6101;SDS011;3081;50.584;7.032;2024-01-06T06:40:40;1.50;;;1.07;;
6101;SDS011;3081;50.584;7.032;2024-01-06T06:43:07;7.07;;;1.63;;
6101;SDS011;3081;50.584;7.032;2024-01-06T06:45:34;5.80;;;3.73;;
6101;SDS011;3081;50.584;7.032;2024-01-06T06:48:01;3.35;;;2.13;;
6101;SDS011;3081;50.584;7.032;2024-01-06T06:50:28;5.70;;;3.40;;
6101;SDS011;3081;50.584;7.032;2024-01-06T06:52:55;9.80;;;4.57;;
6101;SDS011;3081;50.584;7.032;2024-01-06T06:55:22;5.50;;;3.22;;
6101;SDS011;3081;50.584;7.032;2024-01-06T06:57:50;4.40;;;2.70;;
6101;SDS011;3081;50.584;7.032;2024-01-06T07:00:17;7.83;;;3.60;;
6101;SDS011;3081;50.584;7.032;2024-01-06T07:02:45;6.77;;;1.43;;
6101;SDS011;3081;50.584;7.032;2024-01-06T07:05:12;2.80;;;1.43;;
6101;SDS011;3081;50.584;7.032;2024-01-06T07:07:39;1.80;;;1.70;;
6101;SDS011;3081;50.584;7.032;2024-01-06T07:10:08;9.07;;;3.70;;
6101;SDS011;3081;50.584;7.032;2024-01-06T07:12:35;6.30;;;4.00;;
6101;SDS011;3081;50.584;7.032;2024-01-06T07:15:04;7.60;;;4.00;;
6101;SDS011;3081;50.584;7.032;2024-01-06T07:17:31;5.67;;;2.43;;
6101;SDS011;3081;50.584;7.032;2024-01-06T07:19:58;7.57;;;3.13;;
6101;SDS011;3081;50.584;7.032;2024-01-06T07:22:25;3.40;;;1.87;;
6101;SDS011;3081;50.584;7.032;2024-01-06T07:24:52;3.10;;;2.13;;
6101;SDS011;3081;50.584;7.032;2024-01-06T07:27:19;2.60;;;2.00;;
6101;SDS011;3081;50.584;7.032;2024-01-06T07:29:46;1.13;;;1.03;;
6101;SDS011;3081;50.584;7.032;2024-01-06T07:32:14;7.30;;;4.00;;
6101;SDS011;3081;50.584;7.032;2024-01-06T07:34:41;1.77;;;1.03;;
6101;SDS011;3081;50.584;7.032;2024-01-06T07:37:09;5.10;;;3.07;;
6101;SDS011;3081;50.584;7.032;2024-01-06T07:39:36;3.07;;;2.33;;
6101;SDS011;3081;50.584;7.032;2024-01-06T07:42:03;4.40;;;1.07;;
6101;SDS011;3081;50.584;7.032;2024-01-06T07:44:30;1.30;;;0.53;;
6101;SDS011;3081;50.584;7.032;2024-01-06T07:46:57;2.57;;;1.03;;
6101;SDS011;3081;50.584;7.032;2024-01-06T07:49:25;8.30;;;4.30;;
6101;SDS011;3081;50.584;7.032;2024-01-06T07:51:52;4.07;;;1.10;;
6101;SDS011;3081;50.584;7.032;2024-01-06T07:54:19;5.77;;;3.57;;
6101;SDS011;3081;50.584;7.032;2024-01-06T07:56:46;9.80;;;2.20;;
6101;SDS011;3081;50.584;7.032;2024-01-06T07:59:13;1.00;;;0.47;;
6101;SDS011;3081;50.584;7.032;2024-01-06T08:01:40;7.53;;;1.67;;
6101;SDS011;3081;50.584;7.032;2024-01-06T08:04:08;1.00;;;0.40;;
6101;SDS011;3081;50.584;7.032;2024-01-06T08:06:36;5.93;;;3.63;;
6101;SDS011;3081;50.584;7.032;2024-01-06T08:09:03;2.10;;;1.33;;
6101;SDS011;3081;50.584;7.032;2024-01-06T08:11:31;2.57;;;1.40;;
6101;SDS011;3081;50.584;7.032;2024-01-06T08:13:58;3.10;;;1.37;;
6101;SDS011;3081;50.584;7.032;2024-01-06T08:16:24;3.63;;;1.50;;
6101;SDS011;3081;50.584;7.032;2024-01-06T08:18:52;3.10;;;2.00;;
6101;SDS011;3081;50.584;7.032;2024-01-06T08:21:18;1.30;;;0.73;;
6101;SDS011;3081;50.584;7.032;2024-01-06T08:23:47;1.13;;;0.90;;
6101;SDS011;3081;50.584;7.032;2024-01-06T08:26:14;2.80;;;1.90;;
6101;SDS011;3081;50.584;7.032;2024-01-06T08:28:40;0.80;;;0.30;;
6101;SDS011;3081;50.584;7.032;2024-01-06T08:31:07;4.20;;;1.77;;
6101;SDS011;3081;50.584;7.032;2024-01-06T08:33:34;3.37;;;1.80;;
6101;SDS011;3081;50.584;7.032;2024-01-06T08:36:01;5.70;;;1.63;;
6101;SDS011;3081;50.584;7.032;2024-01-06T08:38:28;2.30;;;1.57;;
6101;SDS011;3081;50.584;7.032;2024-01-06T08:40:57;1.00;;;0.50;;
6101;SDS011;3081;50.584;7.032;2024-01-06T08:43:23;0.90;;;0.50;;
6101;SDS011;3081;50.584;7.032;2024-01-06T08:45:51;2.70;;;1.53;;
6101;SDS011;3081;50.584;7.032;2024-01-06T08:48:17;5.30;;;2.00;;
6101;SDS011;3081;50.584;7.032;2024-01-06T08:50:44;9.10;;;1.50;;
6101;SDS011;3081;50.584;7.032;2024-01-06T08:53:11;2.70;;;1.50;;
6101;SDS011;3081;50.584;7.032;2024-01-06T08:55:39;2.50;;;0.73;;
6101;SDS011;3081;50.584;7.032;2024-01-06T08:58:08;11.00;;;3.17;;
6101;SDS011;3081;50.584;7.032;2024-01-06T09:00:35;1.13;;;0.70;;
6101;SDS011;3081;50.584;7.032;2024-01-06T09:03:02;1.53;;;1.17;;
6101;SDS011;3081;50.584;7.032;2024-01-06T09:05:29;1.47;;;1.00;;
6101;SDS011;3081;50.584;7.032;2024-01-06T09:07:56;1.67;;;1.07;;
6101;SDS011;3081;50.584;7.032;2024-01-06T09:10:22;4.13;;;2.43;;
6101;SDS011;3081;50.584;7.032;2024-01-06T09:12:49;9.67;;;3.87;;
6101;SDS011;3081;50.584;7.032;2024-01-06T09:15:17;3.43;;;1.07;;
6101;SDS011;3081;50.584;7.032;2024-01-06T09:17:44;2.17;;;1.30;;
6101;SDS011;3081;50.584;7.032;2024-01-06T09:20:11;10.90;;;5.20;;
6101;SDS011;3081;50.584;7.032;2024-01-06T09:22:38;6.03;;;2.80;;
6101;SDS011;3081;50.584;7.032;2024-01-06T09:25:06;4.70;;;2.53;;
6101;SDS011;3081;50.584;7.032;2024-01-06T09:27:33;3.63;;;2.30;;
6101;SDS011;3081;50.584;7.032;2024-01-06T09:30:00;6.60;;;3.27;;
6101;SDS011;3081;50.584;7.032;2024-01-06T09:32:28;3.53;;;2.57;;
6101;SDS011;3081;50.584;7.032;2024-01-06T09:34:56;4.47;;;2.00;;
6101;SDS011;3081;50.584;7.032;2024-01-06T09:37:23;3.77;;;2.73;;
6101;SDS011;3081;50.584;7.032;2024-01-06T09:39:49;6.87;;;3.80;;
6101;SDS011;3081;50.584;7.032;2024-01-06T09:42:16;3.80;;;2.80;;
6101;SDS011;3081;50.584;7.032;2024-01-06T09:44:43;2.43;;;2.07;;
6101;SDS011;3081;50.584;7.032;2024-01-06T09:47:10;3.40;;;2.47;;
6101;SDS011;3081;50.584;7.032;2024-01-06T09:49:39;6.90;;;3.50;;
6101;SDS011;3081;50.584;7.032;2024-01-06T09:52:15;6.03;;;2.60;;
6101;SDS011;3081;50.584;7.032;2024-01-06T09:54:46;6.83;;;2.23;;
6101;SDS011;3081;50.584;7.032;2024-01-06T09:57:17;6.53;;;1.73;;
6101;SDS011;3081;50.584;7.032;2024-01-06T09:59:44;5.40;;;2.43;;
6101;SDS011;3081;50.584;7.032;2024-01-06T10:02:12;1.83;;;1.37;;
6101;SDS011;3081;50.584;7.032;2024-01-06T10:04:43;4.27;;;2.20;;
6101;SDS011;3081;50.584;7.032;2024-01-06T10:07:10;5.20;;;3.13;;
6101;SDS011;3081;50.584;7.032;2024-01-06T10:09:38;7.30;;;4.17;;
6101;SDS011;3081;50.584;7.032;2024-01-06T10:12:07;6.77;;;3.00;;
6101;SDS011;3081;50.584;7.032;2024-01-06T10:14:34;1.10;;;0.70;;
6101;SDS011;3081;50.584;7.032;2024-01-06T10:17:02;3.03;;;2.07;;
6101;SDS011;3081;50.584;7.032;2024-01-06T10:19:32;5.00;;;2.00;;
6101;SDS011;3081;50.584;7.032;2024-01-06T10:22:02;3.83;;;2.17;;
6101;SDS011;3081;50.584;7.032;2024-01-06T10:24:29;2.20;;;2.00;;
6101;SDS011;3081;50.584;7.032;2024-01-06T10:26:58;5.77;;;2.60;;
6101;SDS011;3081;50.584;7.032;2024-01-06T10:29:26;2.50;;;0.97;;
6101;SDS011;3081;50.584;7.032;2024-01-06T10:31:53;2.93;;;1.40;;
6101;SDS011;3081;50.584;7.032;2024-01-06T10:34:21;1.53;;;1.43;;
6101;SDS011;3081;50.584;7.032;2024-01-06T10:36:48;4.47;;;1.60;;
6101;SDS011;3081;50.584;7.032;2024-01-06T10:39:18;6.30;;;2.10;;
6101;SDS011;3081;50.584;7.032;2024-01-06T10:41:46;4.67;;;2.73;;
6101;SDS011;3081;50.584;7.032;2024-01-06T10:44:15;3.33;;;2.07;;
6101;SDS011;3081;50.584;7.032;2024-01-06T10:46:44;4.73;;;3.10;;
6101;SDS011;3081;50.584;7.032;2024-01-06T10:49:11;3.87;;;1.93;;
6101;SDS011;3081;50.584;7.032;2024-01-06T10:51:40;4.23;;;2.23;;
6101;SDS011;3081;50.584;7.032;2024-01-06T10:54:07;1.73;;;0.60;;
6101;SDS011;3081;50.584;7.032;2024-01-06T10:56:39;6.23;;;2.43;;
6101;SDS011;3081;50.584;7.032;2024-01-06T10:59:06;5.17;;;1.87;;
6101;SDS011;3081;50.584;7.032;2024-01-06T11:01:34;2.83;;;1.83;;
6101;SDS011;3081;50.584;7.032;2024-01-06T11:04:03;5.87;;;1.70;;
6101;SDS011;3081;50.584;7.032;2024-01-06T11:06:31;2.03;;;1.47;;
6101;SDS011;3081;50.584;7.032;2024-01-06T11:08:59;7.90;;;3.03;;
6101;SDS011;3081;50.584;7.032;2024-01-06T11:11:30;4.03;;;2.00;;
6101;SDS011;3081;50.584;7.032;2024-01-06T11:16:48;3.43;;;1.17;;
6101;SDS011;3081;50.584;7.032;2024-01-06T11:22:18;2.33;;;1.40;;
6101;SDS011;3081;50.584;7.032;2024-01-06T11:24:54;2.37;;;1.60;;
6101;SDS011;3081;50.584;7.032;2024-01-06T11:27:22;2.23;;;1.37;;
6101;SDS011;3081;50.584;7.032;2024-01-06T11:29:53;2.03;;;1.20;;
6101;SDS011;3081;50.584;7.032;2024-01-06T11:32:20;4.40;;;2.77;;
6101;SDS011;3081;50.584;7.032;2024-01-06T11:34:53;3.43;;;1.70;;
6101;SDS011;3081;50.584;7.032;2024-01-06T11:37:24;4.27;;;2.23;;
6101;SDS011;3081;50.584;7.032;2024-01-06T11:40:01;6.70;;;3.03;;
6101;SDS011;3081;50.584;7.032;2024-01-06T11:42:31;2.73;;;0.87;;
6101;SDS011;3081;50.584;7.032;2024-01-06T11:45:05;1.47;;;0.77;;
6101;SDS011;3081;50.584;7.032;2024-01-06T11:47:32;3.23;;;2.23;;
6101;SDS011;3081;50.584;7.032;2024-01-06T11:50:00;2.07;;;1.77;;
6101;SDS011;3081;50.584;7.032;2024-01-06T11:52:29;7.73;;;3.33;;
6101;SDS011;3081;50.584;7.032;2024-01-06T11:54:57;3.43;;;1.30;;
6101;SDS011;3081;50.584;7.032;2024-01-06T11:57:24;7.17;;;1.83;;
6101;SDS011;3081;50.584;7.032;2024-01-06T11:59:51;6.67;;;1.87;;
6101;SDS011;3081;50.584;7.032;2024-01-06T12:02:20;4.30;;;2.23;;
6101;SDS011;3081;50.584;7.032;2024-01-06T12:04:48;6.50;;;3.63;;
6101;SDS011;3081;50.584;7.032;2024-01-06T12:07:17;4.17;;;2.50;;
6101;SDS011;3081;50.584;7.032;2024-01-06T12:09:45;4.43;;;1.93;;
6101;SDS011;3081;50.584;7.032;2024-01-06T12:12:14;2.73;;;2.50;;
6101;SDS011;3081;50.584;7.032;2024-01-06T12:14:41;2.23;;;1.67;;
6101;SDS011;3081;50.584;7.032;2024-01-06T12:17:09;2.90;;;1.37;;
6101;SDS011;3081;50.584;7.032;2024-01-06T12:19:39;5.13;;;2.30;;
6101;SDS011;3081;50.584;7.032;2024-01-06T12:22:11;4.90;;;2.57;;
6101;SDS011;3081;50.584;7.032;2024-01-06T12:24:39;6.23;;;3.13;;
6101;SDS011;3081;50.584;7.032;2024-01-06T12:27:06;10.83;;;3.30;;
6101;SDS011;3081;50.584;7.032;2024-01-06T12:29:37;5.57;;;3.30;;
6101;SDS011;3081;50.584;7.032;2024-01-06T12:32:05;2.43;;;1.67;;
6101;SDS011;3081;50.584;7.032;2024-01-06T12:34:33;7.70;;;3.70;;
6101;SDS011;3081;50.584;7.032;2024-01-06T12:37:01;3.97;;;2.80;;
6101;SDS011;3081;50.584;7.032;2024-01-06T12:39:29;1.83;;;1.27;;
6101;SDS011;3081;50.584;7.032;2024-01-06T12:41:56;1.60;;;1.00;;
6101;SDS011;3081;50.584;7.032;2024-01-06T12:44:25;5.10;;;2.50;;
6101;SDS011;3081;50.584;7.032;2024-01-06T12:46:52;2.53;;;1.83;;
6101;SDS011;3081;50.584;7.032;2024-01-06T12:49:19;2.40;;;1.43;;
6101;SDS011;3081;50.584;7.032;2024-01-06T12:51:45;4.77;;;3.10;;
6101;SDS011;3081;50.584;7.032;2024-01-06T12:54:14;3.63;;;3.00;;
6101;SDS011;3081;50.584;7.032;2024-01-06T12:56:41;6.83;;;4.10;;
6101;SDS011;3081;50.584;7.032;2024-01-06T12:59:07;4.20;;;2.23;;
6101;SDS011;3081;50.584;7.032;2024-01-06T13:01:34;8.43;;;4.03;;
6101;SDS011;3081;50.584;7.032;2024-01-06T13:04:01;5.67;;;3.07;;
6101;SDS011;3081;50.584;7.032;2024-01-06T13:06:28;4.30;;;1.90;;
6101;SDS011;3081;50.584;7.032;2024-01-06T13:08:55;2.27;;;1.00;;
6101;SDS011;3081;50.584;7.032;2024-01-06T13:11:24;2.40;;;1.60;;
6101;SDS011;3081;50.584;7.032;2024-01-06T13:13:52;2.83;;;2.47;;
6101;SDS011;3081;50.584;7.032;2024-01-06T13:16:19;3.10;;;2.00;;
6101;SDS011;3081;50.584;7.032;2024-01-06T13:18:46;6.03;;;2.60;;
6101;SDS011;3081;50.584;7.032;2024-01-06T13:21:13;4.30;;;2.70;;
6101;SDS011;3081;50.584;7.032;2024-01-06T13:23:40;3.53;;;1.33;;
6101;SDS011;3081;50.584;7.032;2024-01-06T13:26:07;2.17;;;1.30;;
6101;SDS011;3081;50.584;7.032;2024-01-06T13:28:36;2.40;;;1.20;;
6101;SDS011;3081;50.584;7.032;2024-01-06T13:31:03;4.20;;;1.50;;
6101;SDS011;3081;50.584;7.032;2024-01-06T13:33:30;3.83;;;2.37;;
6101;SDS011;3081;50.584;7.032;2024-01-06T13:35:57;5.20;;;3.00;;
6101;SDS011;3081;50.584;7.032;2024-01-06T13:38:24;1.63;;;1.53;;
6101;SDS011;3081;50.584;7.032;2024-01-06T13:40:51;5.03;;;3.43;;
6101;SDS011;3081;50.584;7.032;2024-01-06T13:43:18;6.40;;;2.80;;
6101;SDS011;3081;50.584;7.032;2024-01-06T13:45:47;7.00;;;2.70;;
6101;SDS011;3081;50.584;7.032;2024-01-06T13:48:14;2.40;;;1.63;;
6101;SDS011;3081;50.584;7.032;2024-01-06T13:50:41;2.20;;;1.23;;
6101;SDS011;3081;50.584;7.032;2024-01-06T13:53:08;2.53;;;1.40;;
6101;SDS011;3081;50.584;7.032;2024-01-06T13:55:35;8.23;;;3.63;;
6101;SDS011;3081;50.584;7.032;2024-01-06T13:58:02;4.73;;;1.97;;
6101;SDS011;3081;50.584;7.032;2024-01-06T14:00:29;2.77;;;1.30;;
6101;SDS011;3081;50.584;7.032;2024-01-06T14:02:57;3.00;;;1.77;;
6101;SDS011;3081;50.584;7.032;2024-01-06T14:05:25;3.63;;;2.10;;
6101;SDS011;3081;50.584;7.032;2024-01-06T14:07:52;2.70;;;1.63;;
6101;SDS011;3081;50.584;7.032;2024-01-06T14:10:19;9.80;;;2.70;;
6101;SDS011;3081;50.584;7.032;2024-01-06T14:12:46;1.10;;;0.67;;
6101;SDS011;3081;50.584;7.032;2024-01-06T14:15:13;3.40;;;2.50;;
6101;SDS011;3081;50.584;7.032;2024-01-06T14:17:40;4.40;;;2.90;;
6101;SDS011;3081;50.584;7.032;2024-01-06T14:20:10;1.43;;;0.47;;
6101;SDS011;3081;50.584;7.032;2024-01-06T14:22:38;1.77;;;0.97;;
6101;SDS011;3081;50.584;7.032;2024-01-06T14:25:05;5.40;;;2.90;;
6101;SDS011;3081;50.584;7.032;2024-01-06T14:27:33;4.97;;;1.60;;
6101;SDS011;3081;50.584;7.032;2024-01-06T14:30:00;1.40;;;0.77;;
6101;SDS011;3081;50.584;7.032;2024-01-06T14:32:27;5.87;;;2.17;;
6101;SDS011;3081;50.584;7.032;2024-01-06T14:34:54;3.60;;;2.30;;
6101;SDS011;3081;50.584;7.032;2024-01-06T14:37:23;4.30;;;1.47;;
6101;SDS011;3081;50.584;7.032;2024-01-06T14:39:49;3.47;;;2.40;;
6101;SDS011;3081;50.584;7.032;2024-01-06T14:42:16;4.73;;;2.27;;
6101;SDS011;3081;50.584;7.032;2024-01-06T14:44:44;7.50;;;1.77;;
6101;SDS011;3081;50.584;7.032;2024-01-06T14:47:11;2.67;;;1.63;;
6101;SDS011;3081;50.584;7.032;2024-01-06T14:49:38;4.20;;;3.10;;
6101;SDS011;3081;50.584;7.032;2024-01-06T14:52:05;5.40;;;3.90;;
6101;SDS011;3081;50.584;7.032;2024-01-06T14:54:35;4.03;;;2.50;;
6101;SDS011;3081;50.584;7.032;2024-01-06T14:57:03;1.00;;;0.80;;
6101;SDS011;3081;50.584;7.032;2024-01-06T14:59:30;5.20;;;2.23;;
6101;SDS011;3081;50.584;7.032;2024-01-06T15:01:56;7.33;;;2.77;;
6101;SDS011;3081;50.584;7.032;2024-01-06T15:04:24;5.47;;;2.70;;
6101;SDS011;3081;50.584;7.032;2024-01-06T15:06:50;3.07;;;2.10;;
6101;SDS011;3081;50.584;7.032;2024-01-06T15:09:17;6.10;;;2.47;;
6101;SDS011;3081;50.584;7.032;2024-01-06T15:11:46;2.70;;;1.63;;
6101;SDS011;3081;50.584;7.032;2024-01-06T15:14:13;11.77;;;2.33;;
6101;SDS011;3081;50.584;7.032;2024-01-06T15:16:40;0.87;;;0.40;;
6101;SDS011;3081;50.584;7.032;2024-01-06T15:19:07;1.47;;;0.83;;
6101;SDS011;3081;50.584;7.032;2024-01-06T15:21:34;1.37;;;0.80;;
6101;SDS011;3081;50.584;7.032;2024-01-06T15:24:01;4.30;;;2.20;;